Air Quality Table

TIMESTAMP NO2 SO2 O3 PM10 TEMP HUM AIRPRES WS WD NO
2021-07-30 23:00 9.72 ug/m3 1.51 ug/m3 57.8 ug/m3 49.31 ug/m3 27.87 C 76.09 % 1,005.15 mbar 1.25 m/s 260.2 Deg 0.55 ug/m3
2021-07-30 22:00 4.76 ug/m3 1.68 ug/m3 55 ug/m3 83.87 ug/m3 27.36 C 85.85 % 1,005.02 mbar 1.41 m/s 221.25 Deg 0.43 ug/m3
2021-07-30 21:00 4.15 ug/m3 1.82 ug/m3 55.83 ug/m3 105.31 ug/m3 27.61 C 86.06 % 1,005.04 mbar 2.08 m/s 220.12 Deg 0.42 ug/m3
2021-07-30 20:00 4.43 ug/m3 1.8 ug/m3 65.02 ug/m3 91.36 ug/m3 28.49 C 78.32 % 1,004.70 mbar 2.36 m/s 221.87 Deg 0.49 ug/m3
2021-07-30 19:00 11.54 ug/m3 1.97 ug/m3 71.13 ug/m3 63.74 ug/m3 31.1 C 49.2 % 1,004.57 mbar 2.51 m/s 263.47 Deg 1.01 ug/m3
2021-07-30 18:00 9.17 ug/m3 2.43 ug/m3 70.67 ug/m3 53.79 ug/m3 33.35 C 32.34 % 1,004.49 mbar 3.15 m/s 279.4 Deg 1.36 ug/m3
2021-07-30 17:00 8.36 ug/m3 2.44 ug/m3 71.39 ug/m3 54.68 ug/m3 34.74 C 26.85 % 1,004.71 mbar 3.71 m/s 279.67 Deg 1.44 ug/m3
2021-07-30 16:00 8.71 ug/m3 2.93 ug/m3 75.88 ug/m3 48.86 ug/m3 35.25 C 25.97 % 1,005.17 mbar 3.55 m/s 282.38 Deg 1.81 ug/m3
2021-07-30 15:00 9.35 ug/m3 2.12 ug/m3 79.12 ug/m3 44.73 ug/m3 35.6 C 28.14 % 1,005.56 mbar 3.41 m/s 281.85 Deg 2.03 ug/m3
2021-07-30 14:00 8.1 ug/m3 2.33 ug/m3 82.68 ug/m3 41.46 ug/m3 35.91 C 27.54 % 1,005.95 mbar 2.83 m/s 269.78 Deg 1.41 ug/m3
2021-07-30 13:00 8.72 ug/m3 2.17 ug/m3 91.04 ug/m3 60.05 ug/m3 35.27 C 28.78 % 1,006.24 mbar 2.85 m/s 252.13 Deg 1.52 ug/m3
2021-07-30 12:00 8.79 ug/m3 1.88 ug/m3 111.82 ug/m3 65.96 ug/m3 33.91 C 38.43 % 1,006.57 mbar 2.52 m/s 120.95 Deg 1.57 ug/m3
2021-07-30 11:00 18.83 ug/m3 1.79 ug/m3 97.85 ug/m3 79.84 ug/m3 34.92 C 36.47 % 1,006.70 mbar 1.97 m/s 144.1 Deg 2.68 ug/m3
2021-07-30 10:00 23.49 ug/m3 2.19 ug/m3 82.1 ug/m3 84.21 ug/m3 36.09 C 26.12 % 1,006.99 mbar 1.48 m/s 224.53 Deg 4.05 ug/m3
2021-07-30 09:00 47.84 ug/m3 2.15 ug/m3 63.47 ug/m3 81.03 ug/m3 33.86 C 29.49 % 1,006.91 mbar 1.22 m/s 221.67 Deg 9.06 ug/m3
2021-07-30 08:00 55.72 ug/m3 2.15 ug/m3 49.84 ug/m3 57.55 ug/m3 31.74 C 33.19 % 1,006.76 mbar 1.23 m/s 250.92 Deg 12.71 ug/m3
2021-07-30 07:00 66.89 ug/m3 2.33 ug/m3 30.58 ug/m3 51.43 ug/m3 29.42 C 38.83 % 1,006.41 mbar 0.87 m/s 281.22 Deg 16.65 ug/m3
2021-07-30 06:00 53 ug/m3 2.29 ug/m3 38.69 ug/m3 44.32 ug/m3 28.14 C 39.57 % 1,006.11 mbar 1.23 m/s 319.02 Deg 5.28 ug/m3
2021-07-30 05:00 25.95 ug/m3 1.98 ug/m3 61.99 ug/m3 37.52 ug/m3 27.92 C 38.75 % 1,005.90 mbar 1.35 m/s 298.27 Deg 1.03 ug/m3
2021-07-30 04:00 11.41 ug/m3 1.97 ug/m3 70.81 ug/m3 34.13 ug/m3 28.42 C 35.55 % 1,005.84 mbar 1.38 m/s 318.63 Deg 0.63 ug/m3
2021-07-30 03:00 11.12 ug/m3 1.9 ug/m3 67.6 ug/m3 27.99 ug/m3 28.82 C 34.01 % 1,006.15 mbar 1.17 m/s 305.8 Deg 0.45 ug/m3
2021-07-30 02:00 19.89 ug/m3 1.98 ug/m3 57.25 ug/m3 26.47 ug/m3 29.37 C 32.55 % 1,006.53 mbar 0.88 m/s 316.63 Deg 0.51 ug/m3

It is to be noted that the data is provisional and subject to quality assurance procedures. For validated data kindly refer your request to contact.air@era.org.mt